sensor_id;sensor_type;location;lat;lon;timestamp;pressure;altitude;pressure_sealevel;temperature
60731;BMP280;46580;52.114;11.674;2024-01-30T00:02:22;-19266.25;;;2.16
60731;BMP280;46580;52.114;11.674;2024-01-30T00:04:47;-19264.09;;;2.08
60731;BMP280;46580;52.114;11.674;2024-01-30T00:07:13;-19265.41;;;2.13
60731;BMP280;46580;52.114;11.674;2024-01-30T00:09:38;-19266.41;;;2.16
60731;BMP280;46580;52.114;11.674;2024-01-30T00:12:05;-19266.41;;;2.16
60731;BMP280;46580;52.114;11.674;2024-01-30T00:14:31;-19261.81;;;2.01
60731;BMP280;46580;52.114;11.674;2024-01-30T00:16:56;-19261.38;;;1.99
60731;BMP280;46580;52.114;11.674;2024-01-30T00:19:22;-19260.50;;;1.96
60731;BMP280;46580;52.114;11.674;2024-01-30T00:21:47;-19263.09;;;2.05
60731;BMP280;46580;52.114;11.674;2024-01-30T00:24:12;-19262.53;;;2.03
60731;BMP280;46580;52.114;11.674;2024-01-30T00:26:38;-19261.66;;;2.00
60731;BMP280;46580;52.114;11.674;2024-01-30T00:29:03;-19261.94;;;2.01
60731;BMP280;46580;52.114;11.674;2024-01-30T00:31:29;-19260.50;;;1.96
60731;BMP280;46580;52.114;11.674;2024-01-30T00:33:55;-19259.06;;;1.91
60731;BMP280;46580;52.114;11.674;2024-01-30T00:36:20;-19261.38;;;1.99
60731;BMP280;46580;52.114;11.674;2024-01-30T00:38:46;-19262.81;;;2.04
60731;BMP280;46580;52.114;11.674;2024-01-30T00:41:11;-19268.00;;;2.22
60731;BMP280;46580;52.114;11.674;2024-01-30T00:43:37;-19267.84;;;2.21
60731;BMP280;46580;52.114;11.674;2024-01-30T00:46:02;-19265.97;;;2.15
60731;BMP280;46580;52.114;11.674;2024-01-30T00:48:28;-19265.81;;;2.14
60731;BMP280;46580;52.114;11.674;2024-01-30T00:50:53;-19266.25;;;2.16
60731;BMP280;46580;52.114;11.674;2024-01-30T00:53:21;-19262.94;;;2.04
60731;BMP280;46580;52.114;11.674;2024-01-30T00:55:49;-19262.66;;;2.03
60731;BMP280;46580;52.114;11.674;2024-01-30T00:58:17;-19259.34;;;1.92
60731;BMP280;46580;52.114;11.674;2024-01-30T01:00:46;-19259.34;;;1.92
60731;BMP280;46580;52.114;11.674;2024-01-30T01:03:11;-19258.50;;;1.89
60731;BMP280;46580;52.114;11.674;2024-01-30T01:05:39;-19259.34;;;1.92
60731;BMP280;46580;52.114;11.674;2024-01-30T01:08:04;-19258.50;;;1.89
60731;BMP280;46580;52.114;11.674;2024-01-30T01:10:30;-19259.78;;;1.94
60731;BMP280;46580;52.114;11.674;2024-01-30T01:12:55;-19260.38;;;1.96
60731;BMP280;46580;52.114;11.674;2024-01-30T01:15:20;-19258.94;;;1.91
60731;BMP280;46580;52.114;11.674;2024-01-30T01:17:46;-19259.94;;;1.94
60731;BMP280;46580;52.114;11.674;2024-01-30T01:20:14;-19259.34;;;1.92
60731;BMP280;46580;52.114;11.674;2024-01-30T01:22:39;-19259.34;;;1.92
60731;BMP280;46580;52.114;11.674;2024-01-30T01:25:06;-19259.66;;;1.93
60731;BMP280;46580;52.114;11.674;2024-01-30T01:27:33;-19256.06;;;1.81
60731;BMP280;46580;52.114;11.674;2024-01-30T01:29:59;-19257.63;;;1.86
60731;BMP280;46580;52.114;11.674;2024-01-30T01:32:25;-19256.47;;;1.83
60731;BMP280;46580;52.114;11.674;2024-01-30T01:34:51;-19254.31;;;1.75
60731;BMP280;46580;52.114;11.674;2024-01-30T01:37:16;-19252.75;;;1.70
60731;BMP280;46580;52.114;11.674;2024-01-30T01:39:41;-19253.75;;;1.73
60731;BMP280;46580;52.114;11.674;2024-01-30T01:42:07;-19255.75;;;1.80
60731;BMP280;46580;52.114;11.674;2024-01-30T01:44:32;-19253.03;;;1.71
60731;BMP280;46580;52.114;11.674;2024-01-30T01:46:57;-19253.47;;;1.72
60731;BMP280;46580;52.114;11.674;2024-01-30T01:49:27;-19252.31;;;1.68
60731;BMP280;46580;52.114;11.674;2024-01-30T01:51:57;-19251.59;;;1.66
60731;BMP280;46580;52.114;11.674;2024-01-30T01:54:24;-19252.44;;;1.69
60731;BMP280;46580;52.114;11.674;2024-01-30T01:56:51;-19251.88;;;1.67
60731;BMP280;46580;52.114;11.674;2024-01-30T01:59:18;-19248.84;;;1.57
60731;BMP280;46580;52.114;11.674;2024-01-30T02:01:44;-19248.16;;;1.54
60731;BMP280;46580;52.114;11.674;2024-01-30T02:04:10;-19250.31;;;1.62
60731;BMP280;46580;52.114;11.674;2024-01-30T02:06:36;-19247.84;;;1.53
60731;BMP280;46580;52.114;11.674;2024-01-30T02:09:02;-19250.00;;;1.61
60731;BMP280;46580;52.114;11.674;2024-01-30T02:11:29;-19249.44;;;1.59
60731;BMP280;46580;52.114;11.674;2024-01-30T02:13:55;-19248.44;;;1.55
60731;BMP280;46580;52.114;11.674;2024-01-30T02:16:20;-19250.31;;;1.62
60731;BMP280;46580;52.114;11.674;2024-01-30T02:18:46;-19249.44;;;1.59
60731;BMP280;46580;52.114;11.674;2024-01-30T02:21:16;-19249.00;;;1.57
60731;BMP280;46580;52.114;11.674;2024-01-30T02:23:43;-19248.72;;;1.56
60731;BMP280;46580;52.114;11.674;2024-01-30T02:26:09;-19250.16;;;1.61
60731;BMP280;46580;52.114;11.674;2024-01-30T02:28:34;-19249.00;;;1.57
60731;BMP280;46580;52.114;11.674;2024-01-30T02:31:00;-19247.41;;;1.52
60731;BMP280;46580;52.114;11.674;2024-01-30T02:33:25;-19245.25;;;1.45
60731;BMP280;46580;52.114;11.674;2024-01-30T02:35:51;-19244.41;;;1.42
60731;BMP280;46580;52.114;11.674;2024-01-30T02:38:18;-19244.97;;;1.44
60731;BMP280;46580;52.114;11.674;2024-01-30T02:40:43;-19243.81;;;1.40
60731;BMP280;46580;52.114;11.674;2024-01-30T02:43:09;-19241.97;;;1.33
60731;BMP280;46580;52.114;11.674;2024-01-30T02:45:34;-19239.50;;;1.25
60731;BMP280;46580;52.114;11.674;2024-01-30T02:48:00;-19238.38;;;1.21
60731;BMP280;46580;52.114;11.674;2024-01-30T02:50:25;-19237.78;;;1.19
60731;BMP280;46580;52.114;11.674;2024-01-30T02:52:50;-19235.78;;;1.12
60731;BMP280;46580;52.114;11.674;2024-01-30T02:55:16;-19235.78;;;1.12
60731;BMP280;46580;52.114;11.674;2024-01-30T02:57:44;-19235.63;;;1.12
60731;BMP280;46580;52.114;11.674;2024-01-30T03:00:09;-19236.34;;;1.14
60731;BMP280;46580;52.114;11.674;2024-01-30T03:02:36;-19237.78;;;1.19
60731;BMP280;46580;52.114;11.674;2024-01-30T03:05:01;-19237.22;;;1.17
60731;BMP280;46580;52.114;11.674;2024-01-30T03:07:26;-19236.91;;;1.16
60731;BMP280;46580;52.114;11.674;2024-01-30T03:09:52;-19235.91;;;1.13
60731;BMP280;46580;52.114;11.674;2024-01-30T03:12:17;-19234.91;;;1.10
60731;BMP280;46580;52.114;11.674;2024-01-30T03:14:43;-19236.34;;;1.14
60731;BMP280;46580;52.114;11.674;2024-01-30T03:17:08;-19238.06;;;1.20
60731;BMP280;46580;52.114;11.674;2024-01-30T03:19:39;-19237.22;;;1.17
60731;BMP280;46580;52.114;11.674;2024-01-30T03:22:05;-19238.94;;;1.23
60731;BMP280;46580;52.114;11.674;2024-01-30T03:24:31;-19237.22;;;1.17
60731;BMP280;46580;52.114;11.674;2024-01-30T03:26:56;-19236.34;;;1.14
60731;BMP280;46580;52.114;11.674;2024-01-30T03:29:21;-19235.91;;;1.13
60731;BMP280;46580;52.114;11.674;2024-01-30T03:31:47;-19235.78;;;1.12
60731;BMP280;46580;52.114;11.674;2024-01-30T03:34:12;-19236.34;;;1.14
60731;BMP280;46580;52.114;11.674;2024-01-30T03:36:38;-19235.91;;;1.13
60731;BMP280;46580;52.114;11.674;2024-01-30T03:39:03;-19236.22;;;1.14
60731;BMP280;46580;52.114;11.674;2024-01-30T03:41:28;-19235.19;;;1.11
60731;BMP280;46580;52.114;11.674;2024-01-30T03:43:54;-19235.19;;;1.11
60731;BMP280;46580;52.114;11.674;2024-01-30T03:46:19;-19235.78;;;1.12
60731;BMP280;46580;52.114;11.674;2024-01-30T03:48:45;-19237.50;;;1.18
60731;BMP280;46580;52.114;11.674;2024-01-30T03:51:11;-19234.47;;;1.08
60731;BMP280;46580;52.114;11.674;2024-01-30T03:53:43;-19233.19;;;1.04
60731;BMP280;46580;52.114;11.674;2024-01-30T03:56:09;-19233.75;;;1.06
60731;BMP280;46580;52.114;11.674;2024-01-30T03:58:34;-19233.75;;;1.06
60731;BMP280;46580;52.114;11.674;2024-01-30T04:01:00;-19232.75;;;1.02
60731;BMP280;46580;52.114;11.674;2024-01-30T04:03:25;-19230.88;;;0.96
60731;BMP280;46580;52.114;11.674;2024-01-30T04:05:53;-19230.31;;;0.94
60731;BMP280;46580;52.114;11.674;2024-01-30T04:08:19;-19230.31;;;0.94
60731;BMP280;46580;52.114;11.674;2024-01-30T04:10:45;-19230.03;;;0.93
60731;BMP280;46580;52.114;11.674;2024-01-30T04:13:10;-19230.03;;;0.93
60731;BMP280;46580;52.114;11.674;2024-01-30T04:15:35;-19231.31;;;0.97
60731;BMP280;46580;52.114;11.674;2024-01-30T04:18:01;-19231.75;;;0.99
60731;BMP280;46580;52.114;11.674;2024-01-30T04:20:26;-19231.75;;;0.99
60731;BMP280;46580;52.114;11.674;2024-01-30T04:22:52;-19231.75;;;0.99
60731;BMP280;46580;52.114;11.674;2024-01-30T04:25:17;-19232.47;;;1.01
60731;BMP280;46580;52.114;11.674;2024-01-30T04:27:42;-19233.19;;;1.04
60731;BMP280;46580;52.114;11.674;2024-01-30T04:30:08;-19231.88;;;0.99
60731;BMP280;46580;52.114;11.674;2024-01-30T04:32:35;-19231.59;;;0.98
60731;BMP280;46580;52.114;11.674;2024-01-30T04:35:00;-19230.44;;;0.94
60731;BMP280;46580;52.114;11.674;2024-01-30T04:37:26;-19232.03;;;1.00
60731;BMP280;46580;52.114;11.674;2024-01-30T04:39:51;-19232.03;;;1.00
60731;BMP280;46580;52.114;11.674;2024-01-30T04:42:21;-19232.31;;;1.01
60731;BMP280;46580;52.114;11.674;2024-01-30T04:44:47;-19232.91;;;1.03
60731;BMP280;46580;52.114;11.674;2024-01-30T04:47:12;-19233.31;;;1.04
60731;BMP280;46580;52.114;11.674;2024-01-30T04:49:41;-19234.75;;;1.09
60731;BMP280;46580;52.114;11.674;2024-01-30T04:52:07;-19234.75;;;1.09
60731;BMP280;46580;52.114;11.674;2024-01-30T04:54:33;-19234.03;;;1.07
60731;BMP280;46580;52.114;11.674;2024-01-30T04:56:58;-19233.75;;;1.06
60731;BMP280;46580;52.114;11.674;2024-01-30T04:59:24;-19234.19;;;1.07
60731;BMP280;46580;52.114;11.674;2024-01-30T05:01:49;-19235.63;;;1.12
60731;BMP280;46580;52.114;11.674;2024-01-30T05:04:15;-19234.47;;;1.08
60731;BMP280;46580;52.114;11.674;2024-01-30T05:06:40;-19233.91;;;1.06
60731;BMP280;46580;52.114;11.674;2024-01-30T05:09:05;-19232.91;;;1.03
60731;BMP280;46580;52.114;11.674;2024-01-30T05:11:31;-19232.75;;;1.02
60731;BMP280;46580;52.114;11.674;2024-01-30T05:13:56;-19232.59;;;1.02
60731;BMP280;46580;52.114;11.674;2024-01-30T05:16:22;-19234.19;;;1.07
60731;BMP280;46580;52.114;11.674;2024-01-30T05:18:47;-19235.06;;;1.10
60731;BMP280;46580;52.114;11.674;2024-01-30T05:21:12;-19235.06;;;1.10
60731;BMP280;46580;52.114;11.674;2024-01-30T05:23:38;-19234.91;;;1.10
60731;BMP280;46580;52.114;11.674;2024-01-30T05:26:03;-19234.63;;;1.09
60731;BMP280;46580;52.114;11.674;2024-01-30T05:28:29;-19235.63;;;1.12
60731;BMP280;46580;52.114;11.674;2024-01-30T05:30:58;-19234.34;;;1.08
60731;BMP280;46580;52.114;11.674;2024-01-30T05:33:25;-19232.19;;;1.00
60731;BMP280;46580;52.114;11.674;2024-01-30T05:35:50;-19232.47;;;1.01
60731;BMP280;46580;52.114;11.674;2024-01-30T05:38:19;-19232.75;;;1.02
60731;BMP280;46580;52.114;11.674;2024-01-30T05:40:44;-19234.03;;;1.07
60731;BMP280;46580;52.114;11.674;2024-01-30T05:43:11;-19234.47;;;1.08
60731;BMP280;46580;52.114;11.674;2024-01-30T05:45:36;-19234.34;;;1.08
60731;BMP280;46580;52.114;11.674;2024-01-30T05:48:02;-19234.47;;;1.08
60731;BMP280;46580;52.114;11.674;2024-01-30T05:50:27;-19233.47;;;1.05
60731;BMP280;46580;52.114;11.674;2024-01-30T05:52:53;-19233.03;;;1.03
60731;BMP280;46580;52.114;11.674;2024-01-30T05:55:18;-19233.75;;;1.06
60731;BMP280;46580;52.114;11.674;2024-01-30T05:57:44;-19233.47;;;1.05
60731;BMP280;46580;52.114;11.674;2024-01-30T06:00:10;-19234.03;;;1.07
60731;BMP280;46580;52.114;11.674;2024-01-30T06:02:36;-19233.19;;;1.04
60731;BMP280;46580;52.114;11.674;2024-01-30T06:05:01;-19233.75;;;1.06
60731;BMP280;46580;52.114;11.674;2024-01-30T06:07:28;-19233.19;;;1.04
60731;BMP280;46580;52.114;11.674;2024-01-30T06:09:53;-19230.59;;;0.95
60731;BMP280;46580;52.114;11.674;2024-01-30T06:12:19;-19232.75;;;1.02
60731;BMP280;46580;52.114;11.674;2024-01-30T06:14:45;-19233.91;;;1.06
60731;BMP280;46580;52.114;11.674;2024-01-30T06:17:10;-19233.75;;;1.06
60731;BMP280;46580;52.114;11.674;2024-01-30T06:19:37;-19232.59;;;1.02
60731;BMP280;46580;52.114;11.674;2024-01-30T06:22:03;-19232.03;;;1.00
60731;BMP280;46580;52.114;11.674;2024-01-30T06:24:30;-19233.19;;;1.04
60731;BMP280;46580;52.114;11.674;2024-01-30T06:26:55;-19233.19;;;1.04
60731;BMP280;46580;52.114;11.674;2024-01-30T06:29:20;-19232.31;;;1.01
60731;BMP280;46580;52.114;11.674;2024-01-30T06:31:46;-19230.59;;;0.95
60731;BMP280;46580;52.114;11.674;2024-01-30T06:34:11;-19229.44;;;0.91
60731;BMP280;46580;52.114;11.674;2024-01-30T06:36:37;-19227.88;;;0.86
60731;BMP280;46580;52.114;11.674;2024-01-30T06:39:03;-19227.13;;;0.83
60731;BMP280;46580;52.114;11.674;2024-01-30T06:41:28;-19227.56;;;0.85
60731;BMP280;46580;52.114;11.674;2024-01-30T06:43:54;-19227.44;;;0.84
60731;BMP280;46580;52.114;11.674;2024-01-30T06:46:19;-19228.44;;;0.88
60731;BMP280;46580;52.114;11.674;2024-01-30T06:48:45;-19228.00;;;0.86
60731;BMP280;46580;52.114;11.674;2024-01-30T06:51:11;-19227.44;;;0.84
60731;BMP280;46580;52.114;11.674;2024-01-30T06:53:37;-19227.56;;;0.85
60731;BMP280;46580;52.114;11.674;2024-01-30T06:56:02;-19228.72;;;0.89
60731;BMP280;46580;52.114;11.674;2024-01-30T06:58:28;-19229.16;;;0.90
60731;BMP280;46580;52.114;11.674;2024-01-30T07:00:54;-19230.31;;;0.94
60731;BMP280;46580;52.114;11.674;2024-01-30T07:03:19;-19230.31;;;0.94
60731;BMP280;46580;52.114;11.674;2024-01-30T07:05:45;-19229.72;;;0.92
60731;BMP280;46580;52.114;11.674;2024-01-30T07:08:10;-19230.16;;;0.93
60731;BMP280;46580;52.114;11.674;2024-01-30T07:10:36;-19230.31;;;0.94
60731;BMP280;46580;52.114;11.674;2024-01-30T07:13:01;-19229.59;;;0.92
60731;BMP280;46580;52.114;11.674;2024-01-30T07:15:27;-19229.16;;;0.90
60731;BMP280;46580;52.114;11.674;2024-01-30T07:17:52;-19229.16;;;0.90
60731;BMP280;46580;52.114;11.674;2024-01-30T07:20:18;-19228.00;;;0.86
60731;BMP280;46580;52.114;11.674;2024-01-30T07:22:45;-19227.72;;;0.85
60731;BMP280;46580;52.114;11.674;2024-01-30T07:25:11;-19229.00;;;0.90
60731;BMP280;46580;52.114;11.674;2024-01-30T07:27:36;-19231.75;;;0.99
60731;BMP280;46580;52.114;11.674;2024-01-30T07:30:02;-19232.59;;;1.02
60731;BMP280;46580;52.114;11.674;2024-01-30T07:32:28;-19233.91;;;1.06
60731;BMP280;46580;52.114;11.674;2024-01-30T07:34:53;-19234.03;;;1.07
60731;BMP280;46580;52.114;11.674;2024-01-30T07:37:19;-19234.34;;;1.08
60731;BMP280;46580;52.114;11.674;2024-01-30T07:39:45;-19234.19;;;1.07
60731;BMP280;46580;52.114;11.674;2024-01-30T07:42:10;-19234.63;;;1.09
60731;BMP280;46580;52.114;11.674;2024-01-30T07:44:36;-19236.34;;;1.14
60731;BMP280;46580;52.114;11.674;2024-01-30T07:47:01;-19238.06;;;1.20
60731;BMP280;46580;52.114;11.674;2024-01-30T07:49:28;-19239.81;;;1.26
60731;BMP280;46580;52.114;11.674;2024-01-30T07:51:53;-19240.50;;;1.29
60731;BMP280;46580;52.114;11.674;2024-01-30T07:54:19;-19241.81;;;1.33
60731;BMP280;46580;52.114;11.674;2024-01-30T07:56:44;-19243.81;;;1.40
60731;BMP280;46580;52.114;11.674;2024-01-30T07:59:10;-19251.44;;;1.66
60731;BMP280;46580;52.114;11.674;2024-01-30T08:01:37;-19256.19;;;1.82
60731;BMP280;46580;52.114;11.674;2024-01-30T08:04:02;-19258.50;;;1.89
60731;BMP280;46580;52.114;11.674;2024-01-30T08:06:28;-19260.94;;;1.98
60731;BMP280;46580;52.114;11.674;2024-01-30T08:08:53;-19263.09;;;2.05
60731;BMP280;46580;52.114;11.674;2024-01-30T08:11:22;-19263.97;;;2.08
60731;BMP280;46580;52.114;11.674;2024-01-30T08:13:51;-19264.53;;;2.10
60731;BMP280;46580;52.114;11.674;2024-01-30T08:16:17;-19265.97;;;2.15
60731;BMP280;46580;52.114;11.674;2024-01-30T08:18:43;-19267.56;;;2.20
60731;BMP280;46580;52.114;11.674;2024-01-30T08:21:09;-19269.28;;;2.26
60731;BMP280;46580;52.114;11.674;2024-01-30T08:23:35;-19270.28;;;2.29
60731;BMP280;46580;52.114;11.674;2024-01-30T08:26:00;-19274.59;;;2.44
60731;BMP280;46580;52.114;11.674;2024-01-30T08:28:28;-19278.75;;;2.58
60731;BMP280;46580;52.114;11.674;2024-01-30T08:30:53;-19280.63;;;2.64
60731;BMP280;46580;52.114;11.674;2024-01-30T08:33:19;-19285.53;;;2.81
60731;BMP280;46580;52.114;11.674;2024-01-30T08:35:44;-19288.69;;;2.92
60731;BMP280;46580;52.114;11.674;2024-01-30T08:38:11;-19292.13;;;3.03
60731;BMP280;46580;52.114;11.674;2024-01-30T08:40:37;-19293.44;;;3.08
60731;BMP280;46580;52.114;11.674;2024-01-30T08:43:03;-19295.16;;;3.14
60731;BMP280;46580;52.114;11.674;2024-01-30T08:45:29;-19299.03;;;3.27
60731;BMP280;46580;52.114;11.674;2024-01-30T08:47:55;-19304.91;;;3.47
60731;BMP280;46580;52.114;11.674;2024-01-30T08:50:21;-19309.38;;;3.62
60731;BMP280;46580;52.114;11.674;2024-01-30T08:52:47;-19313.97;;;3.77
60731;BMP280;46580;52.114;11.674;2024-01-30T08:55:12;-19318.84;;;3.94
60731;BMP280;46580;52.114;11.674;2024-01-30T08:57:37;-19321.44;;;4.03
60731;BMP280;46580;52.114;11.674;2024-01-30T09:00:03;-19323.44;;;4.09
60731;BMP280;46580;52.114;11.674;2024-01-30T09:02:32;-19327.75;;;4.24
60731;BMP280;46580;52.114;11.674;2024-01-30T09:04:57;-19331.50;;;4.37
60731;BMP280;46580;52.114;11.674;2024-01-30T09:07:23;-19333.50;;;4.44
60731;BMP280;46580;52.114;11.674;2024-01-30T09:09:48;-19336.38;;;4.53
60731;BMP280;46580;52.114;11.674;2024-01-30T09:12:14;-19338.09;;;4.59
60731;BMP280;46580;52.114;11.674;2024-01-30T09:14:40;-19340.25;;;4.66
60731;BMP280;46580;52.114;11.674;2024-01-30T09:17:06;-19342.84;;;4.75
60731;BMP280;46580;52.114;11.674;2024-01-30T09:19:31;-19344.13;;;4.80
60731;BMP280;46580;52.114;11.674;2024-01-30T09:21:57;-19346.44;;;4.87
60731;BMP280;46580;52.114;11.674;2024-01-30T09:24:22;-19346.44;;;4.87
60731;BMP280;46580;52.114;11.674;2024-01-30T09:26:47;-19349.00;;;4.96
60731;BMP280;46580;52.114;11.674;2024-01-30T09:29:14;-19353.16;;;5.10
60731;BMP280;46580;52.114;11.674;2024-01-30T09:31:43;-19356.63;;;5.22
60731;BMP280;46580;52.114;11.674;2024-01-30T09:34:10;-19360.78;;;5.36
60731;BMP280;46580;52.114;11.674;2024-01-30T09:36:35;-19361.50;;;5.38
60731;BMP280;46580;52.114;11.674;2024-01-30T09:39:02;-19364.22;;;5.48
60731;BMP280;46580;52.114;11.674;2024-01-30T09:41:29;-19367.38;;;5.58
60731;BMP280;46580;52.114;11.674;2024-01-30T09:43:57;-19369.97;;;5.67
60731;BMP280;46580;52.114;11.674;2024-01-30T09:46:26;-19373.41;;;5.79
60731;BMP280;46580;52.114;11.674;2024-01-30T09:48:53;-19375.00;;;5.84
60731;BMP280;46580;52.114;11.674;2024-01-30T09:51:20;-19378.28;;;5.95
60731;BMP280;46580;52.114;11.674;2024-01-30T09:53:46;-19380.31;;;6.02
60731;BMP280;46580;52.114;11.674;2024-01-30T09:56:12;-19382.88;;;6.11
60731;BMP280;46580;52.114;11.674;2024-01-30T09:58:38;-19384.31;;;6.16
60731;BMP280;46580;52.114;11.674;2024-01-30T10:01:05;-19386.75;;;6.24
60731;BMP280;46580;52.114;11.674;2024-01-30T10:03:30;-19387.75;;;6.28
60731;BMP280;46580;52.114;11.674;2024-01-30T10:05:56;-19389.47;;;6.33
60731;BMP280;46580;52.114;11.674;2024-01-30T10:08:21;-19391.78;;;6.41
60731;BMP280;46580;52.114;11.674;2024-01-30T10:10:47;-19394.50;;;6.50
60731;BMP280;46580;52.114;11.674;2024-01-30T10:13:13;-19395.78;;;6.55
60731;BMP280;46580;52.114;11.674;2024-01-30T10:15:39;-19398.38;;;6.64
60731;BMP280;46580;52.114;11.674;2024-01-30T10:18:05;-19400.38;;;6.70
60731;BMP280;46580;52.114;11.674;2024-01-30T10:20:32;-19401.81;;;6.75
60731;BMP280;46580;52.114;11.674;2024-01-30T10:22:57;-19403.81;;;6.82
60731;BMP280;46580;52.114;11.674;2024-01-30T10:25:23;-19405.41;;;6.87
60731;BMP280;46580;52.114;11.674;2024-01-30T10:27:53;-19407.84;;;6.96
60731;BMP280;46580;52.114;11.674;2024-01-30T10:30:20;-19408.84;;;6.99
60731;BMP280;46580;52.114;11.674;2024-01-30T10:32:45;-19410.84;;;7.06
60731;BMP280;46580;52.114;11.674;2024-01-30T10:35:11;-19411.84;;;7.09
60731;BMP280;46580;52.114;11.674;2024-01-30T10:37:37;-19413.84;;;7.16
60731;BMP280;46580;52.114;11.674;2024-01-30T10:40:03;-19417.28;;;7.28
60731;BMP280;46580;52.114;11.674;2024-01-30T10:42:32;-19420.75;;;7.40
60731;BMP280;46580;52.114;11.674;2024-01-30T10:45:15;-19423.31;;;7.48
60731;BMP280;46580;52.114;11.674;2024-01-30T10:47:49;-19423.31;;;7.48
60731;BMP280;46580;52.114;11.674;2024-01-30T10:50:16;-19425.31;;;7.55
60731;BMP280;46580;52.114;11.674;2024-01-30T10:52:42;-19425.19;;;7.55
60731;BMP280;46580;52.114;11.674;2024-01-30T10:55:09;-19426.47;;;7.59
60731;BMP280;46580;52.114;11.674;2024-01-30T10:57:35;-19428.34;;;7.65
60731;BMP280;46580;52.114;11.674;2024-01-30T11:00:07;-19429.19;;;7.68
60731;BMP280;46580;52.114;11.674;2024-01-30T11:02:41;-19432.34;;;7.79
60731;BMP280;46580;52.114;11.674;2024-01-30T11:05:10;-19435.22;;;7.89
60731;BMP280;46580;52.114;11.674;2024-01-30T11:07:39;-19434.78;;;7.87
60731;BMP280;46580;52.114;11.674;2024-01-30T11:10:04;-19437.66;;;7.97
60731;BMP280;46580;52.114;11.674;2024-01-30T11:12:32;-19440.53;;;8.07
60731;BMP280;46580;52.114;11.674;2024-01-30T11:15:09;-19445.09;;;8.22
60731;BMP280;46580;52.114;11.674;2024-01-30T11:22:53;-19448.56;;;8.34
60731;BMP280;46580;52.114;11.674;2024-01-30T11:25:22;-19450.56;;;8.41
60731;BMP280;46580;52.114;11.674;2024-01-30T11:27:55;-19449.97;;;8.39
60731;BMP280;46580;52.114;11.674;2024-01-30T11:30:29;-19451.25;;;8.43
60731;BMP280;46580;52.114;11.674;2024-01-30T11:35:26;-19460.44;;;8.74
60731;BMP280;46580;52.114;11.674;2024-01-30T11:37:52;-19463.59;;;8.85
60731;BMP280;46580;52.114;11.674;2024-01-30T11:40:18;-19463.59;;;8.85
60731;BMP280;46580;52.114;11.674;2024-01-30T11:42:45;-19465.72;;;8.92
60731;BMP280;46580;52.114;11.674;2024-01-30T11:45:13;-19464.31;;;8.88
60731;BMP280;46580;52.114;11.674;2024-01-30T11:47:39;-19469.16;;;9.04
60731;BMP280;46580;52.114;11.674;2024-01-30T11:50:05;-19468.31;;;9.01
60731;BMP280;46580;52.114;11.674;2024-01-30T11:52:33;-19471.19;;;9.11
60731;BMP280;46580;52.114;11.674;2024-01-30T11:54:59;-19472.63;;;9.16
60731;BMP280;46580;52.114;11.674;2024-01-30T11:57:27;-19474.19;;;9.21
60731;BMP280;46580;52.114;11.674;2024-01-30T11:59:54;-19473.47;;;9.19
60731;BMP280;46580;52.114;11.674;2024-01-30T12:02:19;-19476.34;;;9.28
60731;BMP280;46580;52.114;11.674;2024-01-30T12:04:45;-19475.75;;;9.27
60731;BMP280;46580;52.114;11.674;2024-01-30T12:07:11;-19474.03;;;9.21
60731;BMP280;46580;52.114;11.674;2024-01-30T12:09:41;-19474.75;;;9.23
60731;BMP280;46580;52.114;11.674;2024-01-30T12:12:07;-19476.03;;;9.28
60731;BMP280;46580;52.114;11.674;2024-01-30T12:14:38;-19476.19;;;9.28
60731;BMP280;46580;52.114;11.674;2024-01-30T12:17:03;-19478.19;;;9.35
60731;BMP280;46580;52.114;11.674;2024-01-30T12:19:29;-19480.06;;;9.41
60731;BMP280;46580;52.114;11.674;2024-01-30T12:21:58;-19481.78;;;9.47
60731;BMP280;46580;52.114;11.674;2024-01-30T12:24:25;-19485.22;;;9.59
60731;BMP280;46580;52.114;11.674;2024-01-30T12:26:51;-19488.06;;;9.68
60731;BMP280;46580;52.114;11.674;2024-01-30T12:29:20;-19488.06;;;9.68
60731;BMP280;46580;52.114;11.674;2024-01-30T12:31:46;-19487.06;;;9.65
60731;BMP280;46580;52.114;11.674;2024-01-30T12:34:13;-19488.06;;;9.68
60731;BMP280;46580;52.114;11.674;2024-01-30T12:36:39;-19490.50;;;9.77
60731;BMP280;46580;52.114;11.674;2024-01-30T12:39:05;-19492.66;;;9.84
60731;BMP280;46580;52.114;11.674;2024-01-30T12:41:30;-19495.38;;;9.93
60731;BMP280;46580;52.114;11.674;2024-01-30T12:43:58;-19495.22;;;9.93
60731;BMP280;46580;52.114;11.674;2024-01-30T12:46:28;-19496.94;;;9.99
60731;BMP280;46580;52.114;11.674;2024-01-30T12:48:54;-19497.66;;;10.01
60731;BMP280;46580;52.114;11.674;2024-01-30T12:51:19;-19498.09;;;10.03
60731;BMP280;46580;52.114;11.674;2024-01-30T12:53:44;-19499.38;;;10.07
60731;BMP280;46580;52.114;11.674;2024-01-30T12:56:11;-19499.25;;;10.06
60731;BMP280;46580;52.114;11.674;2024-01-30T12:58:37;-19498.94;;;10.05
60731;BMP280;46580;52.114;11.674;2024-01-30T13:01:02;-19502.53;;;10.18
60731;BMP280;46580;52.114;11.674;2024-01-30T13:03:28;-19502.81;;;10.19
60731;BMP280;46580;52.114;11.674;2024-01-30T13:05:54;-19502.81;;;10.19
60731;BMP280;46580;52.114;11.674;2024-01-30T13:08:20;-19506.25;;;10.30
60731;BMP280;46580;52.114;11.674;2024-01-30T13:10:45;-19509.25;;;10.40
60731;BMP280;46580;52.114;11.674;2024-01-30T13:13:11;-19514.13;;;10.57
60731;BMP280;46580;52.114;11.674;2024-01-30T13:15:37;-19515.13;;;10.60
60731;BMP280;46580;52.114;11.674;2024-01-30T13:18:03;-19515.69;;;10.62
60731;BMP280;46580;52.114;11.674;2024-01-30T13:20:30;-19516.69;;;10.66
60731;BMP280;46580;52.114;11.674;2024-01-30T13:22:55;-19518.13;;;10.71
60731;BMP280;46580;52.114;11.674;2024-01-30T13:25:21;-19520.13;;;10.77
60731;BMP280;46580;52.114;11.674;2024-01-30T13:27:46;-19520.28;;;10.78
60731;BMP280;46580;52.114;11.674;2024-01-30T13:30:12;-19522.41;;;10.85
60731;BMP280;46580;52.114;11.674;2024-01-30T13:32:37;-19523.84;;;10.90
60731;BMP280;46580;52.114;11.674;2024-01-30T13:35:03;-19523.72;;;10.90
60731;BMP280;46580;52.114;11.674;2024-01-30T13:37:29;-19519.56;;;10.76
60731;BMP280;46580;52.114;11.674;2024-01-30T13:39:57;-19516.97;;;10.67
60731;BMP280;46580;52.114;11.674;2024-01-30T13:42:23;-19516.69;;;10.66
60731;BMP280;46580;52.114;11.674;2024-01-30T13:44:49;-19517.84;;;10.70
60731;BMP280;46580;52.114;11.674;2024-01-30T13:47:15;-19518.41;;;10.72
60731;BMP280;46580;52.114;11.674;2024-01-30T13:49:41;-19520.13;;;10.77
60731;BMP280;46580;52.114;11.674;2024-01-30T13:52:07;-19521.56;;;10.82
60731;BMP280;46580;52.114;11.674;2024-01-30T13:54:33;-19521.72;;;10.83
60731;BMP280;46580;52.114;11.674;2024-01-30T13:56:59;-19522.41;;;10.85
60731;BMP280;46580;52.114;11.674;2024-01-30T13:59:25;-19521.72;;;10.83